Terminal Aerodrome Forecast
Issued by NWS Cleveland, OH

Home | Current Version | Previous Version | Graphics & Text | Print | Product List | Glossary On
Versions: 1 2 3 4 5 6 7 8 9 10 11 12 13 14 15 16 17 18 19 20
000
FTUS41 KCLE 180540
TAFCAK
TAF
KCAK 180540Z 1806/1906 27008KT P6SM OVC028
     FM181700 23007KT P6SM SCT035
     FM182300 13006KT P6SM -RA OVC040
     FM190100 11008KT P6SM -RA OVC015
     FM190300 11009KT 3SM -RA OVC008=

USA.gov is the U.S. government's official web portal to all federal, state and local government web resources and services.